sensor_id;sensor_type;location;lat;lon;timestamp;P1;durP1;ratioP1;P2;durP2;ratioP2
73023;SDS011;61199;47.526;8.538;2023-02-01T00:00:21;12.07;;;6.40;;
73023;SDS011;61199;47.526;8.538;2023-02-01T00:02:48;15.60;;;6.43;;
73023;SDS011;61199;47.526;8.538;2023-02-01T00:05:15;11.90;;;6.00;;
73023;SDS011;61199;47.526;8.538;2023-02-01T00:07:41;14.73;;;6.27;;
73023;SDS011;61199;47.526;8.538;2023-02-01T00:10:07;9.87;;;6.13;;
73023;SDS011;61199;47.526;8.538;2023-02-01T00:12:35;13.70;;;7.20;;
73023;SDS011;61199;47.526;8.538;2023-02-01T00:15:01;10.10;;;6.60;;
73023;SDS011;61199;47.526;8.538;2023-02-01T00:17:27;13.00;;;7.10;;
73023;SDS011;61199;47.526;8.538;2023-02-01T00:19:54;18.87;;;8.07;;
73023;SDS011;61199;47.526;8.538;2023-02-01T00:22:20;15.90;;;6.90;;
73023;SDS011;61199;47.526;8.538;2023-02-01T00:24:47;12.87;;;6.83;;
73023;SDS011;61199;47.526;8.538;2023-02-01T00:27:13;15.03;;;7.70;;
73023;SDS011;61199;47.526;8.538;2023-02-01T00:29:43;18.67;;;7.30;;
73023;SDS011;61199;47.526;8.538;2023-02-01T00:32:11;11.57;;;6.60;;
73023;SDS011;61199;47.526;8.538;2023-02-01T00:34:37;13.40;;;7.43;;
73023;SDS011;61199;47.526;8.538;2023-02-01T00:37:04;17.47;;;7.70;;
73023;SDS011;61199;47.526;8.538;2023-02-01T00:39:30;19.63;;;9.27;;
73023;SDS011;61199;47.526;8.538;2023-02-01T00:41:57;24.73;;;8.13;;
73023;SDS011;61199;47.526;8.538;2023-02-01T00:44:23;14.53;;;7.80;;
73023;SDS011;61199;47.526;8.538;2023-02-01T00:46:49;13.93;;;7.60;;
73023;SDS011;61199;47.526;8.538;2023-02-01T00:49:16;12.00;;;6.93;;
73023;SDS011;61199;47.526;8.538;2023-02-01T00:51:42;14.67;;;7.40;;
73023;SDS011;61199;47.526;8.538;2023-02-01T00:54:09;15.63;;;8.67;;
73023;SDS011;61199;47.526;8.538;2023-02-01T00:56:35;17.10;;;7.40;;
73023;SDS011;61199;47.526;8.538;2023-02-01T00:59:01;17.70;;;7.60;;
73023;SDS011;61199;47.526;8.538;2023-02-01T01:01:28;16.87;;;8.60;;
73023;SDS011;61199;47.526;8.538;2023-02-01T01:03:55;14.63;;;7.90;;
73023;SDS011;61199;47.526;8.538;2023-02-01T01:06:24;17.93;;;8.70;;
73023;SDS011;61199;47.526;8.538;2023-02-01T01:08:53;16.00;;;7.90;;
73023;SDS011;61199;47.526;8.538;2023-02-01T01:11:24;14.30;;;7.10;;
73023;SDS011;61199;47.526;8.538;2023-02-01T01:13:54;16.07;;;7.50;;
73023;SDS011;61199;47.526;8.538;2023-02-01T01:16:22;15.33;;;7.40;;
73023;SDS011;61199;47.526;8.538;2023-02-01T01:18:50;17.83;;;7.30;;
73023;SDS011;61199;47.526;8.538;2023-02-01T01:21:17;15.77;;;7.90;;
73023;SDS011;61199;47.526;8.538;2023-02-01T01:23:44;16.43;;;8.67;;
73023;SDS011;61199;47.526;8.538;2023-02-01T01:26:15;16.10;;;7.50;;
73023;SDS011;61199;47.526;8.538;2023-02-01T01:28:43;18.33;;;9.37;;
73023;SDS011;61199;47.526;8.538;2023-02-01T01:31:10;18.87;;;8.13;;
73023;SDS011;61199;47.526;8.538;2023-02-01T01:33:38;16.90;;;8.80;;
73023;SDS011;61199;47.526;8.538;2023-02-01T01:36:05;20.80;;;8.83;;
73023;SDS011;61199;47.526;8.538;2023-02-01T01:38:32;16.87;;;8.73;;
73023;SDS011;61199;47.526;8.538;2023-02-01T01:40:58;19.43;;;8.13;;
73023;SDS011;61199;47.526;8.538;2023-02-01T01:43:25;20.13;;;9.10;;
73023;SDS011;61199;47.526;8.538;2023-02-01T01:45:51;21.50;;;10.13;;
73023;SDS011;61199;47.526;8.538;2023-02-01T01:48:23;16.97;;;8.90;;
73023;SDS011;61199;47.526;8.538;2023-02-01T01:50:57;16.20;;;8.33;;
73023;SDS011;61199;47.526;8.538;2023-02-01T01:53:33;18.70;;;9.73;;
73023;SDS011;61199;47.526;8.538;2023-02-01T01:56:04;19.63;;;9.57;;
73023;SDS011;61199;47.526;8.538;2023-02-01T01:58:31;22.33;;;11.83;;
73023;SDS011;61199;47.526;8.538;2023-02-01T02:00:59;16.20;;;8.20;;
73023;SDS011;61199;47.526;8.538;2023-02-01T02:06:05;18.07;;;9.13;;
73023;SDS011;61199;47.526;8.538;2023-02-01T02:08:40;29.53;;;10.40;;
73023;SDS011;61199;47.526;8.538;2023-02-01T02:11:06;17.90;;;9.70;;
73023;SDS011;61199;47.526;8.538;2023-02-01T02:13:34;18.60;;;10.03;;
73023;SDS011;61199;47.526;8.538;2023-02-01T02:16:12;20.20;;;9.40;;
73023;SDS011;61199;47.526;8.538;2023-02-01T02:30:14;25.57;;;12.73;;
73023;SDS011;61199;47.526;8.538;2023-02-01T02:32:53;30.87;;;13.87;;
73023;SDS011;61199;47.526;8.538;2023-02-01T02:36:06;35.93;;;14.77;;
73023;SDS011;61199;47.526;8.538;2023-02-01T02:38:23;39.80;;;16.13;;
73023;SDS011;61199;47.526;8.538;2023-02-01T02:41:18;43.10;;;18.70;;
73023;SDS011;61199;47.526;8.538;2023-02-01T02:44:08;38.10;;;17.90;;
73023;SDS011;61199;47.526;8.538;2023-02-01T02:47:01;42.80;;;19.77;;
73023;SDS011;61199;47.526;8.538;2023-02-01T02:49:54;55.90;;;23.03;;
73023;SDS011;61199;47.526;8.538;2023-02-01T02:52:51;49.80;;;21.77;;
73023;SDS011;61199;47.526;8.538;2023-02-01T02:55:43;48.00;;;21.77;;
73023;SDS011;61199;47.526;8.538;2023-02-01T02:58:11;51.03;;;23.37;;
73023;SDS011;61199;47.526;8.538;2023-02-01T03:00:58;50.27;;;21.13;;
73023;SDS011;61199;47.526;8.538;2023-02-01T03:03:43;54.00;;;22.90;;
73023;SDS011;61199;47.526;8.538;2023-02-01T03:06:29;40.93;;;18.93;;
73023;SDS011;61199;47.526;8.538;2023-02-01T03:08:58;42.93;;;18.43;;
73023;SDS011;61199;47.526;8.538;2023-02-01T03:11:27;35.00;;;16.23;;
73023;SDS011;61199;47.526;8.538;2023-02-01T03:14:15;35.70;;;16.50;;
73023;SDS011;61199;47.526;8.538;2023-02-01T03:16:49;32.50;;;15.03;;
73023;SDS011;61199;47.526;8.538;2023-02-01T03:19:25;32.60;;;14.77;;
73023;SDS011;61199;47.526;8.538;2023-02-01T03:21:59;29.90;;;14.43;;
73023;SDS011;61199;47.526;8.538;2023-02-01T03:24:30;29.10;;;14.40;;
73023;SDS011;61199;47.526;8.538;2023-02-01T03:27:09;35.47;;;16.00;;
73023;SDS011;61199;47.526;8.538;2023-02-01T03:29:50;30.13;;;15.50;;
73023;SDS011;61199;47.526;8.538;2023-02-01T03:32:20;32.23;;;15.07;;
73023;SDS011;61199;47.526;8.538;2023-02-01T03:34:47;31.53;;;16.47;;
73023;SDS011;61199;47.526;8.538;2023-02-01T03:37:21;36.40;;;16.40;;
73023;SDS011;61199;47.526;8.538;2023-02-01T03:39:53;36.43;;;16.70;;
73023;SDS011;61199;47.526;8.538;2023-02-01T03:42:32;36.30;;;16.77;;
73023;SDS011;61199;47.526;8.538;2023-02-01T03:45:10;36.17;;;15.57;;
73023;SDS011;61199;47.526;8.538;2023-02-01T03:47:40;30.57;;;16.10;;
73023;SDS011;61199;47.526;8.538;2023-02-01T03:50:12;36.90;;;17.37;;
73023;SDS011;61199;47.526;8.538;2023-02-01T03:52:42;33.77;;;17.50;;
73023;SDS011;61199;47.526;8.538;2023-02-01T03:55:11;34.83;;;18.80;;
73023;SDS011;61199;47.526;8.538;2023-02-01T03:57:44;35.57;;;17.80;;
73023;SDS011;61199;47.526;8.538;2023-02-01T04:00:19;38.67;;;19.30;;
73023;SDS011;61199;47.526;8.538;2023-02-01T04:02:48;40.47;;;20.30;;
73023;SDS011;61199;47.526;8.538;2023-02-01T04:05:15;39.53;;;21.40;;
73023;SDS011;61199;47.526;8.538;2023-02-01T04:07:41;38.83;;;20.73;;
73023;SDS011;61199;47.526;8.538;2023-02-01T04:10:08;41.50;;;20.70;;
73023;SDS011;61199;47.526;8.538;2023-02-01T04:12:35;41.87;;;21.23;;
73023;SDS011;61199;47.526;8.538;2023-02-01T04:15:02;40.00;;;19.80;;
73023;SDS011;61199;47.526;8.538;2023-02-01T04:17:29;39.57;;;20.03;;
73023;SDS011;61199;47.526;8.538;2023-02-01T04:19:56;37.87;;;18.97;;
73023;SDS011;61199;47.526;8.538;2023-02-01T04:22:22;35.50;;;17.60;;
73023;SDS011;61199;47.526;8.538;2023-02-01T04:24:49;35.77;;;17.97;;
73023;SDS011;61199;47.526;8.538;2023-02-01T04:27:15;38.23;;;16.90;;
73023;SDS011;61199;47.526;8.538;2023-02-01T04:29:42;30.73;;;16.20;;
73023;SDS011;61199;47.526;8.538;2023-02-01T04:32:08;27.93;;;15.40;;
73023;SDS011;61199;47.526;8.538;2023-02-01T04:34:34;35.03;;;15.13;;
73023;SDS011;61199;47.526;8.538;2023-02-01T04:37:01;31.70;;;14.93;;
73023;SDS011;61199;47.526;8.538;2023-02-01T04:39:28;30.60;;;14.97;;
73023;SDS011;61199;47.526;8.538;2023-02-01T04:41:54;28.13;;;14.80;;
73023;SDS011;61199;47.526;8.538;2023-02-01T04:44:21;28.03;;;14.60;;
73023;SDS011;61199;47.526;8.538;2023-02-01T04:46:47;26.63;;;13.63;;
73023;SDS011;61199;47.526;8.538;2023-02-01T04:49:14;26.90;;;14.27;;
73023;SDS011;61199;47.526;8.538;2023-02-01T04:51:42;28.03;;;14.03;;
73023;SDS011;61199;47.526;8.538;2023-02-01T04:54:08;23.57;;;12.50;;
73023;SDS011;61199;47.526;8.538;2023-02-01T04:56:37;23.30;;;13.23;;
73023;SDS011;61199;47.526;8.538;2023-02-01T04:59:04;33.40;;;14.00;;
73023;SDS011;61199;47.526;8.538;2023-02-01T05:01:31;28.17;;;12.53;;
73023;SDS011;61199;47.526;8.538;2023-02-01T05:03:57;26.03;;;14.00;;
73023;SDS011;61199;47.526;8.538;2023-02-01T05:06:24;21.30;;;11.20;;
73023;SDS011;61199;47.526;8.538;2023-02-01T05:08:50;19.90;;;11.47;;
73023;SDS011;61199;47.526;8.538;2023-02-01T05:11:17;26.30;;;11.80;;
73023;SDS011;61199;47.526;8.538;2023-02-01T05:14:02;25.30;;;13.30;;
73023;SDS011;61199;47.526;8.538;2023-02-01T05:16:28;22.63;;;12.50;;
73023;SDS011;61199;47.526;8.538;2023-02-01T05:18:54;24.87;;;12.87;;
73023;SDS011;61199;47.526;8.538;2023-02-01T05:21:21;27.43;;;12.37;;
73023;SDS011;61199;47.526;8.538;2023-02-01T05:23:47;29.03;;;13.90;;
73023;SDS011;61199;47.526;8.538;2023-02-01T05:26:32;27.83;;;14.30;;
73023;SDS011;61199;47.526;8.538;2023-02-01T05:28:59;27.30;;;13.77;;
73023;SDS011;61199;47.526;8.538;2023-02-01T05:31:26;24.67;;;14.33;;
73023;SDS011;61199;47.526;8.538;2023-02-01T05:33:52;27.07;;;14.43;;
73023;SDS011;61199;47.526;8.538;2023-02-01T05:36:18;28.10;;;15.93;;
73023;SDS011;61199;47.526;8.538;2023-02-01T05:38:45;25.00;;;14.57;;
73023;SDS011;61199;47.526;8.538;2023-02-01T05:41:11;32.50;;;16.23;;
73023;SDS011;61199;47.526;8.538;2023-02-01T05:43:38;31.63;;;16.93;;
73023;SDS011;61199;47.526;8.538;2023-02-01T05:46:04;35.60;;;17.70;;
73023;SDS011;61199;47.526;8.538;2023-02-01T05:48:30;33.30;;;17.33;;
73023;SDS011;61199;47.526;8.538;2023-02-01T05:50:57;27.33;;;16.00;;
73023;SDS011;61199;47.526;8.538;2023-02-01T05:53:23;32.23;;;16.83;;
73023;SDS011;61199;47.526;8.538;2023-02-01T05:55:49;28.53;;;15.17;;
73023;SDS011;61199;47.526;8.538;2023-02-01T05:58:16;29.57;;;15.33;;
73023;SDS011;61199;47.526;8.538;2023-02-01T06:00:42;22.83;;;13.60;;
73023;SDS011;61199;47.526;8.538;2023-02-01T06:03:08;23.80;;;13.30;;
73023;SDS011;61199;47.526;8.538;2023-02-01T06:05:35;25.03;;;12.60;;
73023;SDS011;61199;47.526;8.538;2023-02-01T06:08:03;27.87;;;13.97;;
73023;SDS011;61199;47.526;8.538;2023-02-01T06:10:29;23.90;;;13.17;;
73023;SDS011;61199;47.526;8.538;2023-02-01T06:12:56;24.40;;;12.53;;
73023;SDS011;61199;47.526;8.538;2023-02-01T06:15:22;25.50;;;12.97;;
73023;SDS011;61199;47.526;8.538;2023-02-01T06:17:48;21.33;;;11.90;;
73023;SDS011;61199;47.526;8.538;2023-02-01T06:20:15;26.33;;;11.27;;
73023;SDS011;61199;47.526;8.538;2023-02-01T06:22:42;21.77;;;11.23;;
73023;SDS011;61199;47.526;8.538;2023-02-01T06:25:09;18.10;;;9.90;;
73023;SDS011;61199;47.526;8.538;2023-02-01T06:27:36;25.50;;;12.80;;
73023;SDS011;61199;47.526;8.538;2023-02-01T06:30:03;23.37;;;11.20;;
73023;SDS011;61199;47.526;8.538;2023-02-01T06:32:30;20.70;;;9.97;;
73023;SDS011;61199;47.526;8.538;2023-02-01T06:34:57;19.00;;;9.73;;
73023;SDS011;61199;47.526;8.538;2023-02-01T06:37:24;22.63;;;10.47;;
73023;SDS011;61199;47.526;8.538;2023-02-01T06:39:51;23.80;;;9.63;;
73023;SDS011;61199;47.526;8.538;2023-02-01T06:42:17;28.30;;;11.33;;
73023;SDS011;61199;47.526;8.538;2023-02-01T06:44:44;16.70;;;9.60;;
73023;SDS011;61199;47.526;8.538;2023-02-01T06:47:10;21.60;;;10.27;;
73023;SDS011;61199;47.526;8.538;2023-02-01T06:49:36;19.80;;;9.40;;
73023;SDS011;61199;47.526;8.538;2023-02-01T06:52:03;24.03;;;10.30;;
73023;SDS011;61199;47.526;8.538;2023-02-01T06:54:29;27.03;;;10.77;;
73023;SDS011;61199;47.526;8.538;2023-02-01T06:56:58;19.23;;;9.57;;
73023;SDS011;61199;47.526;8.538;2023-02-01T06:59:24;16.37;;;8.97;;
73023;SDS011;61199;47.526;8.538;2023-02-01T07:01:51;17.60;;;8.20;;
73023;SDS011;61199;47.526;8.538;2023-02-01T07:04:17;18.20;;;10.23;;
73023;SDS011;61199;47.526;8.538;2023-02-01T07:06:43;16.87;;;8.97;;
73023;SDS011;61199;47.526;8.538;2023-02-01T07:09:10;20.80;;;9.80;;
73023;SDS011;61199;47.526;8.538;2023-02-01T07:11:38;18.77;;;9.50;;
73023;SDS011;61199;47.526;8.538;2023-02-01T07:14:11;27.20;;;10.43;;
73023;SDS011;61199;47.526;8.538;2023-02-01T07:16:38;22.77;;;11.63;;
73023;SDS011;61199;47.526;8.538;2023-02-01T07:19:04;22.50;;;11.93;;
73023;SDS011;61199;47.526;8.538;2023-02-01T07:21:31;25.57;;;12.97;;
73023;SDS011;61199;47.526;8.538;2023-02-01T07:23:57;24.73;;;13.33;;
73023;SDS011;61199;47.526;8.538;2023-02-01T07:26:24;28.27;;;14.30;;
73023;SDS011;61199;47.526;8.538;2023-02-01T07:28:50;29.53;;;14.73;;
73023;SDS011;61199;47.526;8.538;2023-02-01T07:31:18;33.70;;;16.37;;
73023;SDS011;61199;47.526;8.538;2023-02-01T07:33:50;36.90;;;18.10;;
73023;SDS011;61199;47.526;8.538;2023-02-01T07:36:20;35.33;;;16.80;;
73023;SDS011;61199;47.526;8.538;2023-02-01T07:38:47;38.73;;;18.00;;
73023;SDS011;61199;47.526;8.538;2023-02-01T07:41:14;41.30;;;18.77;;
73023;SDS011;61199;47.526;8.538;2023-02-01T07:43:41;41.33;;;20.23;;
73023;SDS011;61199;47.526;8.538;2023-02-01T07:46:07;46.43;;;21.53;;
73023;SDS011;61199;47.526;8.538;2023-02-01T07:48:36;53.70;;;23.73;;
73023;SDS011;61199;47.526;8.538;2023-02-01T07:51:08;44.97;;;21.23;;
73023;SDS011;61199;47.526;8.538;2023-02-01T07:53:36;51.60;;;24.13;;
73023;SDS011;61199;47.526;8.538;2023-02-01T07:56:03;42.63;;;20.67;;
73023;SDS011;61199;47.526;8.538;2023-02-01T07:58:30;47.83;;;22.77;;
73023;SDS011;61199;47.526;8.538;2023-02-01T08:00:56;60.97;;;23.43;;
73023;SDS011;61199;47.526;8.538;2023-02-01T08:03:41;49.03;;;20.67;;
73023;SDS011;61199;47.526;8.538;2023-02-01T08:06:08;43.73;;;20.67;;
73023;SDS011;61199;47.526;8.538;2023-02-01T08:08:34;50.00;;;21.03;;
73023;SDS011;61199;47.526;8.538;2023-02-01T08:11:01;41.37;;;20.10;;
73023;SDS011;61199;47.526;8.538;2023-02-01T08:13:30;50.63;;;22.33;;
73023;SDS011;61199;47.526;8.538;2023-02-01T08:16:00;47.30;;;20.23;;
73023;SDS011;61199;47.526;8.538;2023-02-01T08:18:28;56.20;;;22.10;;
73023;SDS011;61199;47.526;8.538;2023-02-01T08:20:55;55.83;;;21.50;;
73023;SDS011;61199;47.526;8.538;2023-02-01T08:23:22;48.53;;;22.10;;
73023;SDS011;61199;47.526;8.538;2023-02-01T08:25:49;53.03;;;22.30;;
73023;SDS011;61199;47.526;8.538;2023-02-01T08:28:15;55.07;;;21.00;;
73023;SDS011;61199;47.526;8.538;2023-02-01T08:30:41;47.50;;;20.60;;
73023;SDS011;61199;47.526;8.538;2023-02-01T08:33:09;48.80;;;20.67;;
73023;SDS011;61199;47.526;8.538;2023-02-01T08:35:36;39.77;;;19.00;;
73023;SDS011;61199;47.526;8.538;2023-02-01T08:38:09;41.03;;;18.77;;
73023;SDS011;61199;47.526;8.538;2023-02-01T08:40:35;43.33;;;19.67;;
73023;SDS011;61199;47.526;8.538;2023-02-01T08:43:02;36.50;;;18.27;;
73023;SDS011;61199;47.526;8.538;2023-02-01T08:45:29;38.00;;;17.37;;
73023;SDS011;61199;47.526;8.538;2023-02-01T08:47:56;42.87;;;18.50;;
73023;SDS011;61199;47.526;8.538;2023-02-01T08:50:23;40.03;;;17.07;;
73023;SDS011;61199;47.526;8.538;2023-02-01T08:52:51;41.77;;;18.10;;
73023;SDS011;61199;47.526;8.538;2023-02-01T08:55:18;36.57;;;18.87;;
73023;SDS011;61199;47.526;8.538;2023-02-01T08:57:45;37.97;;;17.50;;
73023;SDS011;61199;47.526;8.538;2023-02-01T09:00:12;34.23;;;15.67;;
73023;SDS011;61199;47.526;8.538;2023-02-01T09:02:41;29.93;;;15.60;;
73023;SDS011;61199;47.526;8.538;2023-02-01T09:05:08;30.40;;;14.83;;
73023;SDS011;61199;47.526;8.538;2023-02-01T09:07:35;30.63;;;15.40;;
73023;SDS011;61199;47.526;8.538;2023-02-01T09:10:02;32.87;;;14.63;;
73023;SDS011;61199;47.526;8.538;2023-02-01T09:12:30;31.87;;;13.67;;
73023;SDS011;61199;47.526;8.538;2023-02-01T09:14:58;27.17;;;13.63;;
73023;SDS011;61199;47.526;8.538;2023-02-01T09:17:26;25.50;;;14.03;;
73023;SDS011;61199;47.526;8.538;2023-02-01T09:19:54;35.20;;;13.60;;
73023;SDS011;61199;47.526;8.538;2023-02-01T09:22:21;28.30;;;12.80;;
73023;SDS011;61199;47.526;8.538;2023-02-01T09:24:47;18.30;;;9.97;;
73023;SDS011;61199;47.526;8.538;2023-02-01T09:27:13;26.03;;;12.70;;
73023;SDS011;61199;47.526;8.538;2023-02-01T09:29:40;28.30;;;13.07;;
73023;SDS011;61199;47.526;8.538;2023-02-01T09:32:07;28.13;;;14.17;;
73023;SDS011;61199;47.526;8.538;2023-02-01T09:34:33;30.10;;;12.97;;
73023;SDS011;61199;47.526;8.538;2023-02-01T09:37:00;22.73;;;11.73;;
73023;SDS011;61199;47.526;8.538;2023-02-01T09:39:27;23.27;;;12.10;;
73023;SDS011;61199;47.526;8.538;2023-02-01T09:41:58;22.00;;;10.80;;
73023;SDS011;61199;47.526;8.538;2023-02-01T09:44:35;23.50;;;10.80;;
73023;SDS011;61199;47.526;8.538;2023-02-01T09:47:15;21.10;;;10.63;;
73023;SDS011;61199;47.526;8.538;2023-02-01T09:49:49;22.43;;;10.57;;
73023;SDS011;61199;47.526;8.538;2023-02-01T09:52:27;21.80;;;10.83;;
73023;SDS011;61199;47.526;8.538;2023-02-01T09:55:11;21.17;;;10.67;;
73023;SDS011;61199;47.526;8.538;2023-02-01T09:57:56;21.67;;;11.73;;
73023;SDS011;61199;47.526;8.538;2023-02-01T10:00:35;21.80;;;11.38;;
73023;SDS011;61199;47.526;8.538;2023-02-01T10:03:04;20.30;;;10.67;;
73023;SDS011;61199;47.526;8.538;2023-02-01T10:05:37;24.77;;;11.80;;
73023;SDS011;61199;47.526;8.538;2023-02-01T10:10:52;23.33;;;10.70;;
73023;SDS011;61199;47.526;8.538;2023-02-01T10:13:31;26.97;;;12.43;;
73023;SDS011;61199;47.526;8.538;2023-02-01T10:16:30;20.23;;;10.70;;
73023;SDS011;61199;47.526;8.538;2023-02-01T10:22:07;22.97;;;9.87;;
73023;SDS011;61199;47.526;8.538;2023-02-01T10:24:40;29.17;;;11.77;;
73023;SDS011;61199;47.526;8.538;2023-02-01T10:27:13;25.80;;;10.77;;
73023;SDS011;61199;47.526;8.538;2023-02-01T10:29:51;22.23;;;10.73;;
73023;SDS011;61199;47.526;8.538;2023-02-01T10:32:22;18.13;;;9.53;;
73023;SDS011;61199;47.526;8.538;2023-02-01T10:35:08;22.53;;;11.33;;
73023;SDS011;61199;47.526;8.538;2023-02-01T10:37:48;22.03;;;9.57;;
73023;SDS011;61199;47.526;8.538;2023-02-01T10:40:22;17.83;;;9.30;;
73023;SDS011;61199;47.526;8.538;2023-02-01T10:42:53;17.20;;;9.13;;
73023;SDS011;61199;47.526;8.538;2023-02-01T10:45:23;22.57;;;9.10;;
73023;SDS011;61199;47.526;8.538;2023-02-01T10:47:54;22.00;;;9.33;;
73023;SDS011;61199;47.526;8.538;2023-02-01T10:50:36;17.47;;;9.40;;
73023;SDS011;61199;47.526;8.538;2023-02-01T10:53:15;18.33;;;9.20;;
73023;SDS011;61199;47.526;8.538;2023-02-01T10:55:53;20.10;;;9.80;;
73023;SDS011;61199;47.526;8.538;2023-02-01T10:58:26;20.10;;;9.00;;
73023;SDS011;61199;47.526;8.538;2023-02-01T11:01:00;17.37;;;9.07;;
73023;SDS011;61199;47.526;8.538;2023-02-01T11:03:41;18.10;;;8.67;;
73023;SDS011;61199;47.526;8.538;2023-02-01T11:06:10;13.13;;;7.60;;
73023;SDS011;61199;47.526;8.538;2023-02-01T11:08:44;16.50;;;8.33;;
73023;SDS011;61199;47.526;8.538;2023-02-01T11:11:13;15.33;;;8.43;;
73023;SDS011;61199;47.526;8.538;2023-02-01T11:13:39;17.93;;;7.97;;
73023;SDS011;61199;47.526;8.538;2023-02-01T11:16:06;13.47;;;8.50;;
73023;SDS011;61199;47.526;8.538;2023-02-01T11:18:38;17.90;;;7.93;;
73023;SDS011;61199;47.526;8.538;2023-02-01T11:21:05;14.50;;;7.07;;
73023;SDS011;61199;47.526;8.538;2023-02-01T11:23:35;19.57;;;8.53;;
73023;SDS011;61199;47.526;8.538;2023-02-01T11:26:28;17.40;;;7.90;;
73023;SDS011;61199;47.526;8.538;2023-02-01T11:29:03;14.10;;;7.63;;
73023;SDS011;61199;47.526;8.538;2023-02-01T11:31:36;16.37;;;7.70;;
73023;SDS011;61199;47.526;8.538;2023-02-01T11:34:12;13.90;;;6.70;;
73023;SDS011;61199;47.526;8.538;2023-02-01T11:36:41;15.50;;;7.00;;
73023;SDS011;61199;47.526;8.538;2023-02-01T11:41:58;12.17;;;6.90;;
73023;SDS011;61199;47.526;8.538;2023-02-01T11:44:32;14.20;;;7.47;;
73023;SDS011;61199;47.526;8.538;2023-02-01T11:47:18;15.80;;;7.43;;
73023;SDS011;61199;47.526;8.538;2023-02-01T11:49:44;13.40;;;6.43;;
73023;SDS011;61199;47.526;8.538;2023-02-01T11:52:14;12.47;;;7.23;;
73023;SDS011;61199;47.526;8.538;2023-02-01T12:06:18;11.30;;;6.70;;
73023;SDS011;61199;47.526;8.538;2023-02-01T12:11:46;12.30;;;6.63;;
73023;SDS011;61199;47.526;8.538;2023-02-01T12:17:12;10.70;;;5.90;;
73023;SDS011;61199;47.526;8.538;2023-02-01T12:19:57;14.27;;;6.17;;
73023;SDS011;61199;47.526;8.538;2023-02-01T12:25:17;13.43;;;7.13;;
73023;SDS011;61199;47.526;8.538;2023-02-01T12:27:56;22.43;;;7.30;;
73023;SDS011;61199;47.526;8.538;2023-02-01T12:33:36;11.80;;;5.80;;
73023;SDS011;61199;47.526;8.538;2023-02-01T12:39:30;12.07;;;6.60;;
73023;SDS011;61199;47.526;8.538;2023-02-01T12:47:24;12.03;;;5.70;;
73023;SDS011;61199;47.526;8.538;2023-02-01T12:52:39;13.53;;;6.37;;
73023;SDS011;61199;47.526;8.538;2023-02-01T13:00:52;18.50;;;4.90;;
73023;SDS011;61199;47.526;8.538;2023-02-01T13:03:34;11.87;;;4.90;;
73023;SDS011;61199;47.526;8.538;2023-02-01T13:06:08;10.40;;;4.43;;
73023;SDS011;61199;47.526;8.538;2023-02-01T13:11:24;7.50;;;3.40;;
73023;SDS011;61199;47.526;8.538;2023-02-01T13:16:47;10.40;;;3.50;;
73023;SDS011;61199;47.526;8.538;2023-02-01T13:21:53;8.60;;;3.17;;
73023;SDS011;61199;47.526;8.538;2023-02-01T13:24:42;14.33;;;3.40;;
73023;SDS011;61199;47.526;8.538;2023-02-01T13:27:13;13.53;;;3.73;;
73023;SDS011;61199;47.526;8.538;2023-02-01T13:29:46;4.80;;;2.50;;
73023;SDS011;61199;47.526;8.538;2023-02-01T13:36:18;9.10;;;2.47;;
73023;SDS011;61199;47.526;8.538;2023-02-01T13:39:02;11.80;;;3.03;;
73023;SDS011;61199;47.526;8.538;2023-02-01T13:41:42;11.47;;;3.10;;
73023;SDS011;61199;47.526;8.538;2023-02-01T13:44:38;11.23;;;3.07;;
73023;SDS011;61199;47.526;8.538;2023-02-01T13:49:53;13.30;;;3.30;;
73023;SDS011;61199;47.526;8.538;2023-02-01T13:52:25;15.43;;;3.67;;
73023;SDS011;61199;47.526;8.538;2023-02-01T13:55:30;13.13;;;3.27;;
73023;SDS011;61199;47.526;8.538;2023-02-01T13:57:49;13.53;;;2.80;;
73023;SDS011;61199;47.526;8.538;2023-02-01T14:21:16;7.93;;;2.63;;
73023;SDS011;61199;47.526;8.538;2023-02-01T14:26:24;11.07;;;3.30;;
73023;SDS011;61199;47.526;8.538;2023-02-01T14:28:57;10.57;;;2.47;;
73023;SDS011;61199;47.526;8.538;2023-02-01T14:31:40;6.50;;;2.70;;
73023;SDS011;61199;47.526;8.538;2023-02-01T14:34:13;9.83;;;2.93;;
73023;SDS011;61199;47.526;8.538;2023-02-01T14:36:45;13.77;;;2.90;;
73023;SDS011;61199;47.526;8.538;2023-02-01T14:39:34;10.23;;;3.50;;
73023;SDS011;61199;47.526;8.538;2023-02-01T14:44:55;13.07;;;2.73;;
73023;SDS011;61199;47.526;8.538;2023-02-01T14:47:41;20.70;;;3.30;;
73023;SDS011;61199;47.526;8.538;2023-02-01T14:58:42;10.23;;;2.63;;
73023;SDS011;61199;47.526;8.538;2023-02-01T15:01:16;9.73;;;3.20;;
73023;SDS011;61199;47.526;8.538;2023-02-01T15:06:38;8.30;;;3.50;;
73023;SDS011;61199;47.526;8.538;2023-02-01T15:09:10;27.43;;;5.20;;
73023;SDS011;61199;47.526;8.538;2023-02-01T15:11:57;15.47;;;2.73;;
73023;SDS011;61199;47.526;8.538;2023-02-01T15:14:45;9.60;;;3.20;;
73023;SDS011;61199;47.526;8.538;2023-02-01T15:22:53;13.60;;;3.73;;
73023;SDS011;61199;47.526;8.538;2023-02-01T15:25:25;11.60;;;3.00;;
73023;SDS011;61199;47.526;8.538;2023-02-01T15:27:57;11.27;;;2.67;;
73023;SDS011;61199;47.526;8.538;2023-02-01T15:30:25;11.27;;;3.83;;
73023;SDS011;61199;47.526;8.538;2023-02-01T15:33:05;15.13;;;3.53;;
73023;SDS011;61199;47.526;8.538;2023-02-01T15:38:20;7.60;;;3.00;;
73023;SDS011;61199;47.526;8.538;2023-02-01T15:41:00;15.80;;;3.33;;
73023;SDS011;61199;47.526;8.538;2023-02-01T15:43:30;15.17;;;3.47;;
73023;SDS011;61199;47.526;8.538;2023-02-01T15:45:59;15.37;;;3.70;;
73023;SDS011;61199;47.526;8.538;2023-02-01T15:48:32;8.87;;;3.07;;
73023;SDS011;61199;47.526;8.538;2023-02-01T15:51:04;7.03;;;2.83;;
73023;SDS011;61199;47.526;8.538;2023-02-01T15:53:30;9.43;;;3.40;;
73023;SDS011;61199;47.526;8.538;2023-02-01T15:55:58;10.60;;;2.93;;
73023;SDS011;61199;47.526;8.538;2023-02-01T15:58:27;10.93;;;2.63;;
73023;SDS011;61199;47.526;8.538;2023-02-01T16:00:59;9.60;;;3.07;;
73023;SDS011;61199;47.526;8.538;2023-02-01T16:03:41;8.67;;;2.97;;
73023;SDS011;61199;47.526;8.538;2023-02-01T16:06:11;12.30;;;3.07;;
73023;SDS011;61199;47.526;8.538;2023-02-01T16:08:53;14.43;;;4.57;;
73023;SDS011;61199;47.526;8.538;2023-02-01T16:11:41;12.73;;;2.93;;
73023;SDS011;61199;47.526;8.538;2023-02-01T16:14:14;11.57;;;3.87;;
73023;SDS011;61199;47.526;8.538;2023-02-01T16:16:41;12.93;;;4.80;;
73023;SDS011;61199;47.526;8.538;2023-02-01T16:19:08;13.60;;;3.50;;
73023;SDS011;61199;47.526;8.538;2023-02-01T16:21:34;11.93;;;3.10;;
73023;SDS011;61199;47.526;8.538;2023-02-01T16:24:00;19.33;;;3.30;;
73023;SDS011;61199;47.526;8.538;2023-02-01T16:26:30;19.53;;;3.87;;
73023;SDS011;61199;47.526;8.538;2023-02-01T16:28:58;13.30;;;3.20;;
73023;SDS011;61199;47.526;8.538;2023-02-01T16:31:26;11.63;;;3.30;;
73023;SDS011;61199;47.526;8.538;2023-02-01T16:33:55;10.83;;;3.13;;
73023;SDS011;61199;47.526;8.538;2023-02-01T16:36:21;10.83;;;2.40;;
73023;SDS011;61199;47.526;8.538;2023-02-01T16:38:48;12.80;;;2.80;;
73023;SDS011;61199;47.526;8.538;2023-02-01T16:41:17;18.03;;;3.73;;
73023;SDS011;61199;47.526;8.538;2023-02-01T16:43:44;10.40;;;2.67;;
73023;SDS011;61199;47.526;8.538;2023-02-01T16:46:12;12.50;;;2.47;;
73023;SDS011;61199;47.526;8.538;2023-02-01T16:48:42;10.83;;;2.97;;
73023;SDS011;61199;47.526;8.538;2023-02-01T16:51:13;14.13;;;3.30;;
73023;SDS011;61199;47.526;8.538;2023-02-01T16:53:42;15.80;;;3.43;;